Trine Charlotte — LMRY — position and weather

sailwx.info

Track history (hours):
 
Tides and Currents Weather Stations Pressure Air Temp Water Temp Dewpoint Dewpoint Depression Visibility Wind Speed Wind Dir Waves Ship Positions

Trine Charlotte

Last reported at 2016-Aug-25 10:33 UTC. Time now 2016-Aug-26 23:31 UTC.
Position N 68°56' E 017°19'.

Length 66 m; draft 5 m.

Type: Cargo ship. MMSI: 257233000.

Date/timePositionNaut miles runAvg speedWind from/ knotsBaromVisibWave heightAir tempDewpointWater temp
2016-Aug-25 10:33N 68°56' E 017°19'2 0.3
2016-Aug-25 02:05N 68°56' E 017°25'3 6.0
2016-Aug-25 01:33N 68°56' E 017°16'94 4.3
2016-Aug-24 03:32N 67°45' E 014°31'8 8.5
2016-Aug-24 02:33N 67°37' E 014°38'11 9.3
2016-Aug-24 01:21N 67°35' E 015°07'7 0.4
2016-Aug-23 09:06N 67°31' E 015°22'5 8.7
2016-Aug-23 08:31N 67°34' E 015°11'16 7.8
2016-Aug-23 06:32N 67°39' E 014°33'  
2016-Aug-20 03:23N 68°44' E 016°41'1 0.0
2016-Aug-19 01:28N 68°43' E 016°41'78 2.7
2016-Aug-17 20:33N 67°42' E 014°31'7 6.4
2016-Aug-17 19:28N 67°37' E 014°44'13 0.8
2016-Aug-17 03:18N 67°32' E 015°15'7 7.8
2016-Aug-17 02:23N 67°36' E 014°59'7 8.3
2016-Aug-17 01:33N 67°37' E 014°41'7 7.0
2016-Aug-17 00:33N 67°43' E 014°31'12 0.5
2016-Aug-16 00:33N 67°31' E 014°29'9 9.5
2016-Aug-15 23:33N 67°22' E 014°23'8 7.7
2016-Aug-15 22:33N 67°15' E 014°17'10 9.5
2016-Aug-15 21:33N 67°17' E 014°40'1 1.1
2016-Aug-15 20:32N 67°18' E 014°43'0 0.0
2016-Aug-15 19:33N 67°18' E 014°43'0 0.0
2016-Aug-15 18:20N 67°18' E 014°43'0 0.0
2016-Aug-15 17:33N 67°18' E 014°43'0 0.0
2016-Aug-15 16:33N 67°18' E 014°43'0 0.0
2016-Aug-15 15:33N 67°18' E 014°43'0 0.0
2016-Aug-15 14:33N 67°18' E 014°43'0 0.0
2016-Aug-15 13:33N 67°18' E 014°43'0 0.0
2016-Aug-15 12:32N 67°18' E 014°43'0 0.0
2016-Aug-15 11:31N 67°18' E 014°43'0 0.0
2016-Aug-15 10:33N 67°18' E 014°43'  
Track history (hours):
 
Tides and Currents Weather Stations Pressure Air Temp Water Temp Dewpoint Dewpoint Depression Visibility Wind Speed Wind Dir Waves Ship Positions

Trine Charlotte

Last reported at 2016-Aug-25 10:33 UTC. Time now 2016-Aug-26 23:31 UTC.
Position N 68°56' E 017°19'.

Length 66 m; draft 5 m.

Type: Cargo ship. MMSI: 257233000.

Date/timePositionNaut miles runAvg speedWind from/ knotsBaromVisibWave heightAir tempDewpointWater temp
2016-Aug-25 10:33N 68°56' E 017°19'2 0.3
2016-Aug-25 02:05N 68°56' E 017°25'3 6.0
2016-Aug-25 01:33N 68°56' E 017°16'94 4.3
2016-Aug-24 03:32N 67°45' E 014°31'8 8.5
2016-Aug-24 02:33N 67°37' E 014°38'11 9.3
2016-Aug-24 01:21N 67°35' E 015°07'7 0.4
2016-Aug-23 09:06N 67°31' E 015°22'5 8.7
2016-Aug-23 08:31N 67°34' E 015°11'16 7.8
2016-Aug-23 06:32N 67°39' E 014°33'  
2016-Aug-20 03:23N 68°44' E 016°41'1 0.0
2016-Aug-19 01:28N 68°43' E 016°41'78 2.7
2016-Aug-17 20:33N 67°42' E 014°31'7 6.4
2016-Aug-17 19:28N 67°37' E 014°44'13 0.8
2016-Aug-17 03:18N 67°32' E 015°15'7 7.8
2016-Aug-17 02:23N 67°36' E 014°59'7 8.3
2016-Aug-17 01:33N 67°37' E 014°41'7 7.0
2016-Aug-17 00:33N 67°43' E 014°31'12 0.5
2016-Aug-16 00:33N 67°31' E 014°29'9 9.5
2016-Aug-15 23:33N 67°22' E 014°23'8 7.7
2016-Aug-15 22:33N 67°15' E 014°17'10 9.5
2016-Aug-15 21:33N 67°17' E 014°40'1 1.1
2016-Aug-15 20:32N 67°18' E 014°43'0 0.0
2016-Aug-15 19:33N 67°18' E 014°43'0 0.0
2016-Aug-15 18:20N 67°18' E 014°43'0 0.0
2016-Aug-15 17:33N 67°18' E 014°43'0 0.0
2016-Aug-15 16:33N 67°18' E 014°43'0 0.0
2016-Aug-15 15:33N 67°18' E 014°43'0 0.0
2016-Aug-15 14:33N 67°18' E 014°43'0 0.0
2016-Aug-15 13:33N 67°18' E 014°43'0 0.0
2016-Aug-15 12:32N 67°18' E 014°43'0 0.0
2016-Aug-15 11:31N 67°18' E 014°43'0 0.0
2016-Aug-15 10:33N 67°18' E 014°43'  

Dump ship's entire track history